Zutphen, Netherlands
Current Conditions -  °F | °C
As of 3:25 AM on Wednesday 22 Oct 2014 (Local Time) from EHDL Reporting Station
Scattered Clouds Scattered Clouds  
Wind Chill: 40°   Ceiling: Unl
Heat Index: 45°   Visibility: 6mi
Dew Point: 41°   Wind: 9mph
Humidity: 87%   Direction: 270°W
Pressure: 29.85"   Gusts: NA
Location:  52.14°N, 6.2°E
Report Text: EHDL 220125Z AUTO 27008KT 9999 FEW044 SCT065 07/05 Q1011 BLU
Loading
Personal Weather Stations






























Interactive Weather Map
Tropical Storm Tracking
New forecast layout! Learn more

10-Day Weather Forecast

Advertisements
Track Severe Weather on mobile